sensor_id;sensor_type;location;lat;lon;timestamp;temperature;humidity
13713;DHT22;6928;50.546;7.120;2023-04-24T00:00:47;12.20;76.73
13713;DHT22;6928;50.546;7.120;2023-04-24T00:03:15;12.15;77.15
13713;DHT22;6928;50.546;7.120;2023-04-24T00:05:42;12.20;77.38
13713;DHT22;6928;50.546;7.120;2023-04-24T00:08:09;12.18;77.62
13713;DHT22;6928;50.546;7.120;2023-04-24T00:10:35;12.02;78.35
13713;DHT22;6928;50.546;7.120;2023-04-24T00:13:02;12.14;77.72
13713;DHT22;6928;50.546;7.120;2023-04-24T00:15:29;12.09;77.84
13713;DHT22;6928;50.546;7.120;2023-04-24T00:17:56;12.02;78.05
13713;DHT22;6928;50.546;7.120;2023-04-24T00:20:24;12.11;77.58
13713;DHT22;6928;50.546;7.120;2023-04-24T00:22:51;12.11;77.89
13713;DHT22;6928;50.546;7.120;2023-04-24T00:25:18;12.08;77.74
13713;DHT22;6928;50.546;7.120;2023-04-24T00:27:44;12.11;77.70
13713;DHT22;6928;50.546;7.120;2023-04-24T00:30:11;12.09;77.77
13713;DHT22;6928;50.546;7.120;2023-04-24T00:32:38;12.04;77.95
13713;DHT22;6928;50.546;7.120;2023-04-24T00:35:06;12.05;77.76
13713;DHT22;6928;50.546;7.120;2023-04-24T00:37:34;12.01;77.89
13713;DHT22;6928;50.546;7.120;2023-04-24T00:40:01;11.99;78.24
13713;DHT22;6928;50.546;7.120;2023-04-24T00:42:28;12.04;78.14
13713;DHT22;6928;50.546;7.120;2023-04-24T00:44:56;11.84;78.84
13713;DHT22;6928;50.546;7.120;2023-04-24T00:47:23;11.73;79.40
13713;DHT22;6928;50.546;7.120;2023-04-24T00:49:51;11.83;79.16
13713;DHT22;6928;50.546;7.120;2023-04-24T00:52:18;11.95;78.83
13713;DHT22;6928;50.546;7.120;2023-04-24T00:54:47;11.69;79.09
13713;DHT22;6928;50.546;7.120;2023-04-24T00:57:14;11.69;78.77
13713;DHT22;6928;50.546;7.120;2023-04-24T00:59:41;11.81;78.02
13713;DHT22;6928;50.546;7.120;2023-04-24T01:02:09;11.91;77.84
13713;DHT22;6928;50.546;7.120;2023-04-24T01:04:37;11.84;77.96
13713;DHT22;6928;50.546;7.120;2023-04-24T01:07:04;11.88;78.33
13713;DHT22;6928;50.546;7.120;2023-04-24T01:09:35;11.87;78.30
13713;DHT22;6928;50.546;7.120;2023-04-24T01:12:04;11.91;77.77
13713;DHT22;6928;50.546;7.120;2023-04-24T01:14:31;11.81;78.24
13713;DHT22;6928;50.546;7.120;2023-04-24T01:16:58;11.84;78.47
13713;DHT22;6928;50.546;7.120;2023-04-24T01:19:24;11.88;77.30
13713;DHT22;6928;50.546;7.120;2023-04-24T01:21:53;11.84;77.46
13713;DHT22;6928;50.546;7.120;2023-04-24T01:24:22;11.88;77.27
13713;DHT22;6928;50.546;7.120;2023-04-24T01:26:49;11.83;77.16
13713;DHT22;6928;50.546;7.120;2023-04-24T01:29:16;11.86;77.23
13713;DHT22;6928;50.546;7.120;2023-04-24T01:31:42;11.74;78.03
13713;DHT22;6928;50.546;7.120;2023-04-24T01:34:10;11.78;78.88
13713;DHT22;6928;50.546;7.120;2023-04-24T01:36:37;11.69;79.20
13713;DHT22;6928;50.546;7.120;2023-04-24T01:39:06;11.59;77.54
13713;DHT22;6928;50.546;7.120;2023-04-24T01:41:34;11.46;78.07
13713;DHT22;6928;50.546;7.120;2023-04-24T01:44:01;11.47;76.90
13713;DHT22;6928;50.546;7.120;2023-04-24T01:46:28;11.42;74.10
13713;DHT22;6928;50.546;7.120;2023-04-24T01:48:56;11.39;74.07
13713;DHT22;6928;50.546;7.120;2023-04-24T01:51:23;11.29;71.71
13713;DHT22;6928;50.546;7.120;2023-04-24T01:53:50;11.34;71.65
13713;DHT22;6928;50.546;7.120;2023-04-24T01:56:17;11.28;71.57
13713;DHT22;6928;50.546;7.120;2023-04-24T01:58:45;11.15;70.20
13713;DHT22;6928;50.546;7.120;2023-04-24T02:01:17;11.19;70.04
13713;DHT22;6928;50.546;7.120;2023-04-24T02:03:44;11.16;69.71
13713;DHT22;6928;50.546;7.120;2023-04-24T02:06:11;11.12;69.39
13713;DHT22;6928;50.546;7.120;2023-04-24T02:08:38;11.05;69.18
13713;DHT22;6928;50.546;7.120;2023-04-24T02:11:05;10.98;69.54
13713;DHT22;6928;50.546;7.120;2023-04-24T02:13:31;10.94;69.80
13713;DHT22;6928;50.546;7.120;2023-04-24T02:15:59;10.92;69.66
13713;DHT22;6928;50.546;7.120;2023-04-24T02:18:26;10.88;69.32
13713;DHT22;6928;50.546;7.120;2023-04-24T02:20:53;10.92;69.43
13713;DHT22;6928;50.546;7.120;2023-04-24T02:23:20;10.85;69.72
13713;DHT22;6928;50.546;7.120;2023-04-24T02:25:47;10.83;69.36
13713;DHT22;6928;50.546;7.120;2023-04-24T02:28:14;10.68;69.91
13713;DHT22;6928;50.546;7.120;2023-04-24T02:30:40;10.70;69.88
13713;DHT22;6928;50.546;7.120;2023-04-24T02:33:09;10.53;70.37
13713;DHT22;6928;50.546;7.120;2023-04-24T02:35:35;10.49;70.73
13713;DHT22;6928;50.546;7.120;2023-04-24T02:38:02;10.49;70.59
13713;DHT22;6928;50.546;7.120;2023-04-24T02:40:29;10.39;70.75
13713;DHT22;6928;50.546;7.120;2023-04-24T02:42:56;10.30;71.10
13713;DHT22;6928;50.546;7.120;2023-04-24T02:45:23;10.23;71.32
13713;DHT22;6928;50.546;7.120;2023-04-24T02:47:50;10.19;71.33
13713;DHT22;6928;50.546;7.120;2023-04-24T02:50:18;10.08;71.78
13713;DHT22;6928;50.546;7.120;2023-04-24T02:52:45;9.99;71.82
13713;DHT22;6928;50.546;7.120;2023-04-24T02:55:12;9.98;72.15
13713;DHT22;6928;50.546;7.120;2023-04-24T02:57:39;9.88;72.23
13713;DHT22;6928;50.546;7.120;2023-04-24T03:00:07;9.87;72.20
13713;DHT22;6928;50.546;7.120;2023-04-24T03:02:34;9.78;72.28
13713;DHT22;6928;50.546;7.120;2023-04-24T03:05:01;9.81;72.40
13713;DHT22;6928;50.546;7.120;2023-04-24T03:07:31;9.68;72.18
13713;DHT22;6928;50.546;7.120;2023-04-24T03:09:58;9.67;72.21
13713;DHT22;6928;50.546;7.120;2023-04-24T03:12:24;9.72;71.96
13713;DHT22;6928;50.546;7.120;2023-04-24T03:14:51;9.60;72.48
13713;DHT22;6928;50.546;7.120;2023-04-24T03:17:18;9.61;72.44
13713;DHT22;6928;50.546;7.120;2023-04-24T03:19:45;9.60;72.70
13713;DHT22;6928;50.546;7.120;2023-04-24T03:22:12;9.61;72.62
13713;DHT22;6928;50.546;7.120;2023-04-24T03:24:40;9.61;72.85
13713;DHT22;6928;50.546;7.120;2023-04-24T03:27:07;9.57;72.69
13713;DHT22;6928;50.546;7.120;2023-04-24T03:29:34;9.61;72.96
13713;DHT22;6928;50.546;7.120;2023-04-24T03:32:00;9.55;72.80
13713;DHT22;6928;50.546;7.120;2023-04-24T03:34:27;9.55;72.92
13713;DHT22;6928;50.546;7.120;2023-04-24T03:36:54;9.57;72.99
13713;DHT22;6928;50.546;7.120;2023-04-24T03:39:21;9.44;73.34
13713;DHT22;6928;50.546;7.120;2023-04-24T03:41:49;9.43;73.67
13713;DHT22;6928;50.546;7.120;2023-04-24T03:44:16;9.40;73.44
13713;DHT22;6928;50.546;7.120;2023-04-24T03:46:42;9.40;73.48
13713;DHT22;6928;50.546;7.120;2023-04-24T03:49:09;9.34;73.34
13713;DHT22;6928;50.546;7.120;2023-04-24T03:51:36;9.36;73.35
13713;DHT22;6928;50.546;7.120;2023-04-24T03:54:03;9.34;73.42
13713;DHT22;6928;50.546;7.120;2023-04-24T03:56:30;9.46;73.28
13713;DHT22;6928;50.546;7.120;2023-04-24T03:58:58;9.39;73.25
13713;DHT22;6928;50.546;7.120;2023-04-24T04:01:25;9.29;73.62
13713;DHT22;6928;50.546;7.120;2023-04-24T04:03:54;9.41;73.21
13713;DHT22;6928;50.546;7.120;2023-04-24T04:06:21;9.30;73.71
13713;DHT22;6928;50.546;7.120;2023-04-24T04:08:48;9.29;73.60
13713;DHT22;6928;50.546;7.120;2023-04-24T04:11:15;9.29;73.57
13713;DHT22;6928;50.546;7.120;2023-04-24T04:13:41;9.27;73.84
13713;DHT22;6928;50.546;7.120;2023-04-24T04:16:10;9.41;73.16
13713;DHT22;6928;50.546;7.120;2023-04-24T04:18:36;9.34;73.33
13713;DHT22;6928;50.546;7.120;2023-04-24T04:21:03;9.39;73.19
13713;DHT22;6928;50.546;7.120;2023-04-24T04:23:30;9.24;73.35
13713;DHT22;6928;50.546;7.120;2023-04-24T04:25:57;9.24;73.38
13713;DHT22;6928;50.546;7.120;2023-04-24T04:28:24;9.23;73.53
13713;DHT22;6928;50.546;7.120;2023-04-24T04:30:51;9.30;73.62
13713;DHT22;6928;50.546;7.120;2023-04-24T04:33:20;9.23;73.73
13713;DHT22;6928;50.546;7.120;2023-04-24T04:35:47;9.44;73.50
13713;DHT22;6928;50.546;7.120;2023-04-24T04:38:15;9.43;73.27
13713;DHT22;6928;50.546;7.120;2023-04-24T04:40:42;9.39;73.50
13713;DHT22;6928;50.546;7.120;2023-04-24T04:43:08;9.46;73.21
13713;DHT22;6928;50.546;7.120;2023-04-24T04:45:35;9.51;73.47
13713;DHT22;6928;50.546;7.120;2023-04-24T04:48:04;9.31;73.82
13713;DHT22;6928;50.546;7.120;2023-04-24T04:50:34;9.50;73.54
13713;DHT22;6928;50.546;7.120;2023-04-24T04:53:01;9.57;73.14
13713;DHT22;6928;50.546;7.120;2023-04-24T04:55:27;9.47;73.62
13713;DHT22;6928;50.546;7.120;2023-04-24T04:57:54;9.52;73.13
13713;DHT22;6928;50.546;7.120;2023-04-24T05:00:22;9.51;73.35
13713;DHT22;6928;50.546;7.120;2023-04-24T05:02:50;9.60;73.33
13713;DHT22;6928;50.546;7.120;2023-04-24T05:05:17;9.58;73.46
13713;DHT22;6928;50.546;7.120;2023-04-24T05:07:45;9.47;73.68
13713;DHT22;6928;50.546;7.120;2023-04-24T05:10:12;9.60;73.22
13713;DHT22;6928;50.546;7.120;2023-04-24T05:12:39;9.58;73.42
13713;DHT22;6928;50.546;7.120;2023-04-24T05:15:07;9.58;73.67
13713;DHT22;6928;50.546;7.120;2023-04-24T05:17:34;9.50;73.89
13713;DHT22;6928;50.546;7.120;2023-04-24T05:20:01;9.57;73.73
13713;DHT22;6928;50.546;7.120;2023-04-24T05:22:30;9.52;73.77
13713;DHT22;6928;50.546;7.120;2023-04-24T05:24:58;9.55;73.74
13713;DHT22;6928;50.546;7.120;2023-04-24T05:27:25;9.50;74.12
13713;DHT22;6928;50.546;7.120;2023-04-24T05:29:52;9.50;74.16
13713;DHT22;6928;50.546;7.120;2023-04-24T05:32:18;9.40;74.63
13713;DHT22;6928;50.546;7.120;2023-04-24T05:34:45;9.58;74.05
13713;DHT22;6928;50.546;7.120;2023-04-24T05:37:12;9.46;74.73
13713;DHT22;6928;50.546;7.120;2023-04-24T05:39:39;9.60;74.21
13713;DHT22;6928;50.546;7.120;2023-04-24T05:42:07;9.64;74.00
13713;DHT22;6928;50.546;7.120;2023-04-24T05:44:34;9.58;74.36
13713;DHT22;6928;50.546;7.120;2023-04-24T05:47:01;9.48;74.45
13713;DHT22;6928;50.546;7.120;2023-04-24T05:49:27;9.55;74.83
13713;DHT22;6928;50.546;7.120;2023-04-24T05:51:54;9.58;74.73
13713;DHT22;6928;50.546;7.120;2023-04-24T05:54:21;9.68;74.63
13713;DHT22;6928;50.546;7.120;2023-04-24T05:56:49;9.71;74.60
13713;DHT22;6928;50.546;7.120;2023-04-24T05:59:17;9.72;74.51
13713;DHT22;6928;50.546;7.120;2023-04-24T06:01:44;9.78;74.49
13713;DHT22;6928;50.546;7.120;2023-04-24T06:04:12;9.74;74.43
13713;DHT22;6928;50.546;7.120;2023-04-24T06:06:39;9.74;74.48
13713;DHT22;6928;50.546;7.120;2023-04-24T06:09:05;9.84;74.14
13713;DHT22;6928;50.546;7.120;2023-04-24T06:11:32;9.88;73.79
13713;DHT22;6928;50.546;7.120;2023-04-24T06:13:59;9.94;73.88
13713;DHT22;6928;50.546;7.120;2023-04-24T06:16:27;9.88;74.04
13713;DHT22;6928;50.546;7.120;2023-04-24T06:18:54;10.06;74.88
13713;DHT22;6928;50.546;7.120;2023-04-24T06:21:20;10.08;74.82
13713;DHT22;6928;50.546;7.120;2023-04-24T06:23:47;10.06;76.09
13713;DHT22;6928;50.546;7.120;2023-04-24T06:26:15;10.08;75.26
13713;DHT22;6928;50.546;7.120;2023-04-24T06:28:41;10.03;74.95
13713;DHT22;6928;50.546;7.120;2023-04-24T06:31:08;10.16;74.65
13713;DHT22;6928;50.546;7.120;2023-04-24T06:33:36;10.15;74.00
13713;DHT22;6928;50.546;7.120;2023-04-24T06:36:03;10.13;73.80
13713;DHT22;6928;50.546;7.120;2023-04-24T06:38:30;10.16;73.54
13713;DHT22;6928;50.546;7.120;2023-04-24T06:40:57;10.12;73.54
13713;DHT22;6928;50.546;7.120;2023-04-24T06:43:24;10.16;73.35
13713;DHT22;6928;50.546;7.120;2023-04-24T06:45:50;10.16;73.38
13713;DHT22;6928;50.546;7.120;2023-04-24T06:48:17;10.20;73.34
13713;DHT22;6928;50.546;7.120;2023-04-24T06:50:45;10.26;73.54
13713;DHT22;6928;50.546;7.120;2023-04-24T06:53:12;10.33;73.52
13713;DHT22;6928;50.546;7.120;2023-04-24T06:55:40;10.29;73.27
13713;DHT22;6928;50.546;7.120;2023-04-24T06:58:08;10.28;73.28
13713;DHT22;6928;50.546;7.120;2023-04-24T07:00:35;10.34;73.35
13713;DHT22;6928;50.546;7.120;2023-04-24T07:03:02;10.18;73.49
13713;DHT22;6928;50.546;7.120;2023-04-24T07:05:30;10.30;73.60
13713;DHT22;6928;50.546;7.120;2023-04-24T07:08:00;10.32;73.65
13713;DHT22;6928;50.546;7.120;2023-04-24T07:10:27;10.33;73.76
13713;DHT22;6928;50.546;7.120;2023-04-24T07:12:54;10.47;73.83
13713;DHT22;6928;50.546;7.120;2023-04-24T07:15:21;10.34;73.34
13713;DHT22;6928;50.546;7.120;2023-04-24T07:17:48;10.41;73.57
13713;DHT22;6928;50.546;7.120;2023-04-24T07:20:15;10.36;73.79
13713;DHT22;6928;50.546;7.120;2023-04-24T07:22:42;10.51;73.98
13713;DHT22;6928;50.546;7.120;2023-04-24T07:25:11;10.41;73.91
13713;DHT22;6928;50.546;7.120;2023-04-24T07:27:37;10.37;74.05
13713;DHT22;6928;50.546;7.120;2023-04-24T07:30:06;10.34;73.99
13713;DHT22;6928;50.546;7.120;2023-04-24T07:32:33;10.40;74.16
13713;DHT22;6928;50.546;7.120;2023-04-24T07:35:00;10.50;74.38
13713;DHT22;6928;50.546;7.120;2023-04-24T07:37:28;10.50;74.06
13713;DHT22;6928;50.546;7.120;2023-04-24T07:39:55;10.47;74.65
13713;DHT22;6928;50.546;7.120;2023-04-24T07:42:23;10.49;74.47
13713;DHT22;6928;50.546;7.120;2023-04-24T07:44:50;10.63;74.51
13713;DHT22;6928;50.546;7.120;2023-04-24T07:47:17;10.57;74.73
13713;DHT22;6928;50.546;7.120;2023-04-24T07:49:43;10.49;75.20
13713;DHT22;6928;50.546;7.120;2023-04-24T07:52:10;10.46;75.68
13713;DHT22;6928;50.546;7.120;2023-04-24T07:54:37;10.40;76.67
13713;DHT22;6928;50.546;7.120;2023-04-24T07:57:04;10.40;77.41
13713;DHT22;6928;50.546;7.120;2023-04-24T07:59:33;10.49;78.46
13713;DHT22;6928;50.546;7.120;2023-04-24T08:02:00;10.39;79.20
13713;DHT22;6928;50.546;7.120;2023-04-24T08:04:27;10.36;78.43
13713;DHT22;6928;50.546;7.120;2023-04-24T08:06:53;10.20;79.71
13713;DHT22;6928;50.546;7.120;2023-04-24T08:09:20;10.20;80.87
13713;DHT22;6928;50.546;7.120;2023-04-24T08:11:47;10.30;81.80
13713;DHT22;6928;50.546;7.120;2023-04-24T08:14:13;10.25;82.05
13713;DHT22;6928;50.546;7.120;2023-04-24T08:16:42;10.13;82.94
13713;DHT22;6928;50.546;7.120;2023-04-24T08:19:09;10.08;82.83
13713;DHT22;6928;50.546;7.120;2023-04-24T08:21:35;10.08;83.54
13713;DHT22;6928;50.546;7.120;2023-04-24T08:24:02;10.23;83.53
13713;DHT22;6928;50.546;7.120;2023-04-24T08:26:33;10.12;83.18
13713;DHT22;6928;50.546;7.120;2023-04-24T08:29:00;10.10;82.79
13713;DHT22;6928;50.546;7.120;2023-04-24T08:31:26;10.08;82.55
13713;DHT22;6928;50.546;7.120;2023-04-24T08:33:54;10.06;82.86
13713;DHT22;6928;50.546;7.120;2023-04-24T08:36:21;10.10;83.09
13713;DHT22;6928;50.546;7.120;2023-04-24T08:38:48;10.03;83.50
13713;DHT22;6928;50.546;7.120;2023-04-24T08:41:15;10.18;83.30
13713;DHT22;6928;50.546;7.120;2023-04-24T08:43:46;10.05;82.36
13713;DHT22;6928;50.546;7.120;2023-04-24T08:46:13;9.97;81.44
13713;DHT22;6928;50.546;7.120;2023-04-24T08:48:42;9.91;82.02
13713;DHT22;6928;50.546;7.120;2023-04-24T08:51:10;9.88;81.51
13713;DHT22;6928;50.546;7.120;2023-04-24T08:53:37;9.99;82.63
13713;DHT22;6928;50.546;7.120;2023-04-24T08:56:05;10.01;82.36
13713;DHT22;6928;50.546;7.120;2023-04-24T08:58:32;10.08;83.34
13713;DHT22;6928;50.546;7.120;2023-04-24T09:01:00;10.09;82.41
13713;DHT22;6928;50.546;7.120;2023-04-24T09:03:28;10.19;82.93
13713;DHT22;6928;50.546;7.120;2023-04-24T09:05:55;10.18;83.74
13713;DHT22;6928;50.546;7.120;2023-04-24T09:08:26;10.02;82.27
13713;DHT22;6928;50.546;7.120;2023-04-24T09:10:54;10.08;82.93
13713;DHT22;6928;50.546;7.120;2023-04-24T09:13:23;10.06;83.63
13713;DHT22;6928;50.546;7.120;2023-04-24T09:15:51;10.15;82.74
13713;DHT22;6928;50.546;7.120;2023-04-24T09:18:19;10.03;83.05
13713;DHT22;6928;50.546;7.120;2023-04-24T09:21:00;10.01;82.56
13713;DHT22;6928;50.546;7.120;2023-04-24T09:23:31;10.06;82.37
13713;DHT22;6928;50.546;7.120;2023-04-24T09:26:00;10.03;81.55
13713;DHT22;6928;50.546;7.120;2023-04-24T09:28:30;10.28;82.08
13713;DHT22;6928;50.546;7.120;2023-04-24T09:31:08;10.13;81.49
13713;DHT22;6928;50.546;7.120;2023-04-24T09:33:36;10.22;81.57
13713;DHT22;6928;50.546;7.120;2023-04-24T09:36:04;10.16;81.70
13713;DHT22;6928;50.546;7.120;2023-04-24T09:38:34;10.10;80.92
13713;DHT22;6928;50.546;7.120;2023-04-24T09:41:02;10.20;81.02
13713;DHT22;6928;50.546;7.120;2023-04-24T09:43:29;10.15;81.59
13713;DHT22;6928;50.546;7.120;2023-04-24T09:45:57;10.18;81.25
13713;DHT22;6928;50.546;7.120;2023-04-24T09:48:32;10.05;82.03
13713;DHT22;6928;50.546;7.120;2023-04-24T09:51:00;9.97;80.96
13713;DHT22;6928;50.546;7.120;2023-04-24T09:53:29;10.03;81.59
13713;DHT22;6928;50.546;7.120;2023-04-24T09:56:02;10.06;81.22
13713;DHT22;6928;50.546;7.120;2023-04-24T09:58:29;10.15;82.23
13713;DHT22;6928;50.546;7.120;2023-04-24T10:00:56;10.26;83.04
13713;DHT22;6928;50.546;7.120;2023-04-24T10:03:24;10.20;82.74
13713;DHT22;6928;50.546;7.120;2023-04-24T10:05:53;10.25;82.16
13713;DHT22;6928;50.546;7.120;2023-04-24T10:08:20;10.40;83.18
13713;DHT22;6928;50.546;7.120;2023-04-24T10:10:48;10.41;83.47
13713;DHT22;6928;50.546;7.120;2023-04-24T10:13:16;10.49;82.39
13713;DHT22;6928;50.546;7.120;2023-04-24T10:15:43;10.70;82.24
13713;DHT22;6928;50.546;7.120;2023-04-24T10:18:11;10.77;82.46
13713;DHT22;6928;50.546;7.120;2023-04-24T10:20:39;10.60;82.04
13713;DHT22;6928;50.546;7.120;2023-04-24T10:23:06;10.70;82.83
13713;DHT22;6928;50.546;7.120;2023-04-24T10:25:35;10.66;82.44
13713;DHT22;6928;50.546;7.120;2023-04-24T10:28:04;10.55;82.05
13713;DHT22;6928;50.546;7.120;2023-04-24T10:30:34;10.40;82.21
13713;DHT22;6928;50.546;7.120;2023-04-24T10:33:02;10.50;83.37
13713;DHT22;6928;50.546;7.120;2023-04-24T10:35:31;10.36;82.02
13713;DHT22;6928;50.546;7.120;2023-04-24T10:38:02;10.37;82.30
13713;DHT22;6928;50.546;7.120;2023-04-24T10:40:32;10.44;83.39
13713;DHT22;6928;50.546;7.120;2023-04-24T10:43:01;10.46;82.20
13713;DHT22;6928;50.546;7.120;2023-04-24T10:45:28;10.37;81.63
13713;DHT22;6928;50.546;7.120;2023-04-24T10:48:02;10.50;81.28
13713;DHT22;6928;50.546;7.120;2023-04-24T10:50:45;10.36;80.49
13713;DHT22;6928;50.546;7.120;2023-04-24T10:53:15;10.32;79.94
13713;DHT22;6928;50.546;7.120;2023-04-24T10:55:45;10.36;80.89
13713;DHT22;6928;50.546;7.120;2023-04-24T10:58:12;10.37;81.88
13713;DHT22;6928;50.546;7.120;2023-04-24T11:00:41;10.47;82.17
13713;DHT22;6928;50.546;7.120;2023-04-24T11:03:26;10.51;82.78
13713;DHT22;6928;50.546;7.120;2023-04-24T11:05:57;10.49;83.19
13713;DHT22;6928;50.546;7.120;2023-04-24T11:08:28;10.47;81.25
13713;DHT22;6928;50.546;7.120;2023-04-24T11:11:01;10.81;81.52
13713;DHT22;6928;50.546;7.120;2023-04-24T11:14:03;10.95;80.99
13713;DHT22;6928;50.546;7.120;2023-04-24T11:16:34;11.09;81.77
13713;DHT22;6928;50.546;7.120;2023-04-24T11:19:10;10.98;80.57
13713;DHT22;6928;50.546;7.120;2023-04-24T11:21:46;10.91;80.40
13713;DHT22;6928;50.546;7.120;2023-04-24T11:24:32;11.11;80.44
13713;DHT22;6928;50.546;7.120;2023-04-24T11:27:06;11.12;79.29
13713;DHT22;6928;50.546;7.120;2023-04-24T11:29:46;11.11;78.96
13713;DHT22;6928;50.546;7.120;2023-04-24T11:32:27;10.99;77.85
13713;DHT22;6928;50.546;7.120;2023-04-24T11:34:57;10.99;78.50
13713;DHT22;6928;50.546;7.120;2023-04-24T11:37:27;10.85;77.72
13713;DHT22;6928;50.546;7.120;2023-04-24T11:39:56;10.98;79.42
13713;DHT22;6928;50.546;7.120;2023-04-24T11:42:23;10.68;78.68
13713;DHT22;6928;50.546;7.120;2023-04-24T11:44:53;10.64;79.59
13713;DHT22;6928;50.546;7.120;2023-04-24T11:47:19;10.66;80.12
13713;DHT22;6928;50.546;7.120;2023-04-24T11:49:49;10.53;80.01
13713;DHT22;6928;50.546;7.120;2023-04-24T11:52:19;10.50;81.32
13713;DHT22;6928;50.546;7.120;2023-04-24T11:54:49;10.25;81.80
13713;DHT22;6928;50.546;7.120;2023-04-24T11:57:18;10.20;82.66
13713;DHT22;6928;50.546;7.120;2023-04-24T11:59:45;10.41;83.25
13713;DHT22;6928;50.546;7.120;2023-04-24T12:02:21;10.53;83.00
13713;DHT22;6928;50.546;7.120;2023-04-24T12:04:48;10.66;83.22
13713;DHT22;6928;50.546;7.120;2023-04-24T12:07:15;10.71;82.74
13713;DHT22;6928;50.546;7.120;2023-04-24T12:09:45;11.18;81.99
13713;DHT22;6928;50.546;7.120;2023-04-24T12:12:12;11.78;83.28
13713;DHT22;6928;50.546;7.120;2023-04-24T12:14:52;11.43;80.27
13713;DHT22;6928;50.546;7.120;2023-04-24T12:17:25;11.74;82.25
13713;DHT22;6928;50.546;7.120;2023-04-24T12:19:52;11.67;80.75
13713;DHT22;6928;50.546;7.120;2023-04-24T12:22:19;11.50;81.24
13713;DHT22;6928;50.546;7.120;2023-04-24T12:25:01;11.11;77.78
13713;DHT22;6928;50.546;7.120;2023-04-24T12:27:30;11.26;78.72
13713;DHT22;6928;50.546;7.120;2023-04-24T12:30:00;11.28;78.92
13713;DHT22;6928;50.546;7.120;2023-04-24T12:32:27;11.29;79.66
13713;DHT22;6928;50.546;7.120;2023-04-24T12:34:55;11.43;80.18
13713;DHT22;6928;50.546;7.120;2023-04-24T12:37:23;11.77;77.77
13713;DHT22;6928;50.546;7.120;2023-04-24T12:40:07;11.93;77.96
13713;DHT22;6928;50.546;7.120;2023-04-24T12:42:35;11.70;75.78
13713;DHT22;6928;50.546;7.120;2023-04-24T12:45:05;11.97;76.68
13713;DHT22;6928;50.546;7.120;2023-04-24T12:47:34;12.44;74.49
13713;DHT22;6928;50.546;7.120;2023-04-24T12:50:02;13.07;75.48
13713;DHT22;6928;50.546;7.120;2023-04-24T12:52:30;13.38;74.27
13713;DHT22;6928;50.546;7.120;2023-04-24T12:54:58;12.84;70.07
13713;DHT22;6928;50.546;7.120;2023-04-24T12:57:28;12.55;69.15
13713;DHT22;6928;50.546;7.120;2023-04-24T12:59:56;12.62;69.63
13713;DHT22;6928;50.546;7.120;2023-04-24T13:02:24;12.50;67.93
13713;DHT22;6928;50.546;7.120;2023-04-24T13:04:52;12.35;67.74
13713;DHT22;6928;50.546;7.120;2023-04-24T13:07:19;12.15;66.79
13713;DHT22;6928;50.546;7.120;2023-04-24T13:09:48;12.24;68.19
13713;DHT22;6928;50.546;7.120;2023-04-24T13:12:15;12.28;68.67
13713;DHT22;6928;50.546;7.120;2023-04-24T13:14:44;12.28;68.52
13713;DHT22;6928;50.546;7.120;2023-04-24T13:17:11;11.97;67.42
13713;DHT22;6928;50.546;7.120;2023-04-24T13:19:41;11.91;68.00
13713;DHT22;6928;50.546;7.120;2023-04-24T13:22:09;12.02;68.01
13713;DHT22;6928;50.546;7.120;2023-04-24T13:24:37;12.14;67.86
13713;DHT22;6928;50.546;7.120;2023-04-24T13:27:05;12.20;68.08
13713;DHT22;6928;50.546;7.120;2023-04-24T13:29:32;12.35;66.49
13713;DHT22;6928;50.546;7.120;2023-04-24T13:32:00;12.73;66.90
13713;DHT22;6928;50.546;7.120;2023-04-24T13:34:27;12.49;67.10
13713;DHT22;6928;50.546;7.120;2023-04-24T13:36:56;12.59;67.60
13713;DHT22;6928;50.546;7.120;2023-04-24T13:39:24;12.59;67.36
13713;DHT22;6928;50.546;7.120;2023-04-24T13:41:51;12.42;67.50
13713;DHT22;6928;50.546;7.120;2023-04-24T13:44:20;12.34;66.98
13713;DHT22;6928;50.546;7.120;2023-04-24T13:46:49;12.41;67.86
13713;DHT22;6928;50.546;7.120;2023-04-24T13:49:18;12.41;67.95
13713;DHT22;6928;50.546;7.120;2023-04-24T13:51:45;12.49;67.93
13713;DHT22;6928;50.546;7.120;2023-04-24T13:54:12;12.52;68.85
13713;DHT22;6928;50.546;7.120;2023-04-24T13:56:40;12.45;67.85
13713;DHT22;6928;50.546;7.120;2023-04-24T13:59:06;12.49;66.94
13713;DHT22;6928;50.546;7.120;2023-04-24T14:01:34;12.45;67.15
13713;DHT22;6928;50.546;7.120;2023-04-24T14:04:01;12.55;67.40
13713;DHT22;6928;50.546;7.120;2023-04-24T14:06:29;12.55;67.93
13713;DHT22;6928;50.546;7.120;2023-04-24T14:08:56;12.48;67.14
13713;DHT22;6928;50.546;7.120;2023-04-24T14:11:23;12.35;66.64
13713;DHT22;6928;50.546;7.120;2023-04-24T14:13:50;12.31;67.03
13713;DHT22;6928;50.546;7.120;2023-04-24T14:16:17;12.41;67.18
13713;DHT22;6928;50.546;7.120;2023-04-24T14:18:44;12.48;66.92
13713;DHT22;6928;50.546;7.120;2023-04-24T14:21:10;12.36;65.95
13713;DHT22;6928;50.546;7.120;2023-04-24T14:23:39;12.36;66.67
13713;DHT22;6928;50.546;7.120;2023-04-24T14:26:05;12.24;67.63
13713;DHT22;6928;50.546;7.120;2023-04-24T14:28:32;11.87;68.09
13713;DHT22;6928;50.546;7.120;2023-04-24T14:30:59;12.04;67.93
13713;DHT22;6928;50.546;7.120;2023-04-24T14:33:26;12.27;68.39
13713;DHT22;6928;50.546;7.120;2023-04-24T14:35:53;12.39;68.53
13713;DHT22;6928;50.546;7.120;2023-04-24T14:38:20;12.32;68.19
13713;DHT22;6928;50.546;7.120;2023-04-24T14:40:48;12.22;68.81
13713;DHT22;6928;50.546;7.120;2023-04-24T14:43:15;12.21;67.79
13713;DHT22;6928;50.546;7.120;2023-04-24T14:45:42;12.41;66.48
13713;DHT22;6928;50.546;7.120;2023-04-24T14:48:09;12.46;65.98
13713;DHT22;6928;50.546;7.120;2023-04-24T14:50:36;12.48;65.89
13713;DHT22;6928;50.546;7.120;2023-04-24T14:53:03;12.45;65.80
13713;DHT22;6928;50.546;7.120;2023-04-24T14:55:30;12.36;66.79
13713;DHT22;6928;50.546;7.120;2023-04-24T14:58:00;12.24;67.04
13713;DHT22;6928;50.546;7.120;2023-04-24T15:00:27;12.34;67.97
13713;DHT22;6928;50.546;7.120;2023-04-24T15:02:53;12.52;67.16
13713;DHT22;6928;50.546;7.120;2023-04-24T15:05:20;12.56;66.97
13713;DHT22;6928;50.546;7.120;2023-04-24T15:07:48;12.75;67.21
13713;DHT22;6928;50.546;7.120;2023-04-24T15:10:14;13.15;64.83
13713;DHT22;6928;50.546;7.120;2023-04-24T15:12:43;13.38;63.98
13713;DHT22;6928;50.546;7.120;2023-04-24T15:15:11;13.34;63.48
13713;DHT22;6928;50.546;7.120;2023-04-24T15:17:38;13.14;62.14
13713;DHT22;6928;50.546;7.120;2023-04-24T15:20:06;13.17;62.16
13713;DHT22;6928;50.546;7.120;2023-04-24T15:22:34;13.31;63.29
13713;DHT22;6928;50.546;7.120;2023-04-24T15:25:01;13.35;62.13
13713;DHT22;6928;50.546;7.120;2023-04-24T15:27:40;13.48;62.28
13713;DHT22;6928;50.546;7.120;2023-04-24T15:30:08;13.49;61.79
13713;DHT22;6928;50.546;7.120;2023-04-24T15:32:37;13.73;61.26
13713;DHT22;6928;50.546;7.120;2023-04-24T15:35:05;13.35;62.42
13713;DHT22;6928;50.546;7.120;2023-04-24T15:37:32;13.02;62.98
13713;DHT22;6928;50.546;7.120;2023-04-24T15:39:59;13.03;63.67
13713;DHT22;6928;50.546;7.120;2023-04-24T15:42:26;12.79;63.07
13713;DHT22;6928;50.546;7.120;2023-04-24T15:44:53;12.70;63.14
13713;DHT22;6928;50.546;7.120;2023-04-24T15:47:20;12.67;64.15
13713;DHT22;6928;50.546;7.120;2023-04-24T15:49:48;12.63;64.52
13713;DHT22;6928;50.546;7.120;2023-04-24T15:52:15;12.59;64.42
13713;DHT22;6928;50.546;7.120;2023-04-24T15:54:44;12.59;64.56